Time;durP1;ratioP1;P1;durP2;ratioP2;P2;SDS_P1;SDS_P2;PMS_P1;PMS_P2;Temp;Humidity;BMP_temperature;BMP_pressure;BME280_temperature;BME280_humidity;BME280_pressure;Samples;Min_cycle;Max_cycle;Signal;HPM_P1;HPM_P2
2021/05/24 00:02:18;;;;;;;10.32;4.50;;;;;;;7.86;92.89;100238.06;20849743;28;20041;-75
2021/05/24 00:12:25;;;;;;;8.80;3.60;;;;;;;7.64;94.53;100230.38;20881595;28;20045;-72
2021/05/24 00:22:29;;;;;;;5.95;3.03;;;;;;;7.36;93.41;100211.69;20889917;28;20053;-72
2021/05/24 00:32:31;;;;;;;8.30;2.67;;;;;;;7.38;93.33;100224.63;20896995;28;20099;-72
2021/05/24 00:42:34;;;;;;;5.72;2.88;;;;;;;7.29;93.13;100224.13;20853967;28;20094;-73
2021/05/24 00:52:36;;;;;;;5.85;2.40;;;;;;;7.16;93.28;100204.72;20887720;28;20044;-72
2021/05/24 01:02:38;;;;;;;9.27;2.67;;;;;;;6.75;94.50;100193.50;20886529;28;20106;-73
2021/05/24 01:12:41;;;;;;;5.45;2.42;;;;;;;6.69;94.38;100191.16;20897102;28;20518;-72
2021/05/24 01:22:55;;;;;;;7.18;2.67;;;;;;;6.82;93.88;100181.91;20871603;28;20083;-71
2021/05/24 01:32:57;;;;;;;8.32;3.72;;;;;;;6.86;94.79;100167.84;20877166;28;20460;-72
2021/05/24 01:43:00;;;;;;;5.10;2.83;;;;;;;6.71;93.42;100154.66;20875410;28;20045;-72
2021/05/24 01:53:02;;;;;;;5.00;2.70;;;;;;;6.44;95.68;100151.47;20908648;28;20041;-71
2021/05/24 02:03:07;;;;;;;5.35;2.47;;;;;;;6.42;96.57;100150.69;20936323;28;20049;-74
2021/05/24 02:13:09;;;;;;;7.20;3.03;;;;;;;6.42;95.51;100120.34;20904973;28;20045;-72
2021/05/24 02:23:11;;;;;;;4.70;2.65;;;;;;;6.24;95.71;100120.25;20902656;28;20053;-72
2021/05/24 02:33:13;;;;;;;4.72;2.72;;;;;;;5.96;96.40;100105.78;20902925;28;20111;-73
2021/05/24 02:43:14;;;;;;;5.15;2.90;;;;;;;5.93;97.68;100111.09;20895256;28;20060;-72
2021/05/24 02:53:16;;;;;;;5.07;2.70;;;;;;;5.87;97.29;100103.56;20911684;28;20492;-74
2021/05/24 03:03:21;;;;;;;7.03;3.17;;;;;;;5.63;96.33;100086.31;20893936;28;20053;-71
2021/05/24 03:13:26;;;;;;;8.10;3.30;;;;;;;5.53;98.70;100096.22;20888817;28;20090;-71
2021/05/24 03:23:28;;;;;;;5.78;2.50;;;;;;;5.75;97.68;100111.78;20891866;28;20038;-71
2021/05/24 03:33:30;;;;;;;4.82;2.80;;;;;;;5.83;96.04;100099.34;20859699;28;20057;-72
2021/05/24 03:43:32;;;;;;;5.93;2.78;;;;;;;5.74;96.69;100088.50;20825561;28;20045;-75
2021/05/24 03:53:35;;;;;;;5.38;2.75;;;;;;;5.44;96.71;100090.50;20814180;28;20539;-75
2021/05/24 04:03:37;;;;;;;5.63;2.88;;;;;;;5.82;96.31;100076.88;20824656;28;20092;-72
2021/05/24 04:13:41;;;;;;;6.10;2.95;;;;;;;6.01;95.01;100077.84;20822543;28;20053;-73
2021/05/24 04:23:44;;;;;;;7.93;3.20;;;;;;;6.23;94.74;100092.56;20806448;28;20037;-71
2021/05/24 04:33:46;;;;;;;5.90;2.72;;;;;;;6.18;94.71;100086.72;20815767;28;20107;-72
2021/05/24 04:43:47;;;;;;;5.55;2.95;;;;;;;6.37;95.65;100074.66;20867128;28;20049;-74
2021/05/24 04:53:49;;;;;;;5.30;2.75;;;;;;;6.35;95.30;100064.31;20858402;28;20047;-71
2021/05/24 05:03:52;;;;;;;5.93;2.38;;;;;;;6.72;94.22;100075.72;20863200;28;20132;-73
2021/05/24 05:13:54;;;;;;;6.38;2.38;;;;;;;7.12;93.45;100067.00;20893843;28;20047;-72
2021/05/24 05:23:56;;;;;;;6.55;2.53;;;;;;;7.60;91.66;100067.34;20883162;28;20471;-72
2021/05/24 05:33:58;;;;;;;5.82;2.35;;;;;;;7.86;90.87;100067.84;20862215;28;20102;-72
2021/05/24 05:44:00;;;;;;;5.95;3.10;;;;;;;8.13;90.25;100077.75;20856793;28;20045;-72
2021/05/24 05:54:01;;;;;;;4.97;3.20;;;;;;;8.54;89.55;100065.28;20895000;28;20049;-72
2021/05/24 06:04:04;;;;;;;6.00;2.40;;;;;;;9.12;86.36;100048.34;20877691;28;20045;-72
2021/05/24 06:14:06;;;;;;;6.88;4.05;;;;;;;9.66;85.80;100047.06;20892880;28;20045;-72
2021/05/24 06:24:08;;;;;;;8.30;3.17;;;;;;;9.66;83.64;100023.53;20872287;28;20045;-72
2021/05/24 06:34:10;;;;;;;8.45;3.58;;;;;;;10.24;83.05;100029.78;20880920;28;20694;-74
2021/05/24 06:44:12;;;;;;;6.00;2.90;;;;;;;10.54;81.37;100039.34;20888873;28;20095;-73
2021/05/24 06:54:14;;;;;;;5.07;2.80;;;;;;;10.87;81.20;100024.19;20884048;28;20103;-73
2021/05/24 07:04:16;;;;;;;5.35;2.42;;;;;;;11.13;78.57;100026.06;20887879;28;20470;-74
2021/05/24 07:14:18;;;;;;;7.32;2.33;;;;;;;11.42;75.58;100024.25;20894692;28;20049;-73
2021/05/24 07:24:19;;;;;;;4.90;2.08;;;;;;;12.30;74.45;100017.59;20893577;28;20053;-73
2021/05/24 07:34:30;;;;;;;3.28;2.00;;;;;;;12.71;70.95;100020.84;20906424;28;20171;-73
2021/05/24 07:44:33;;;;;;;9.18;2.47;;;;;;;13.08;70.57;100010.41;20875985;28;20041;-73
2021/05/24 07:54:35;;;;;;;5.25;1.70;;;;;;;13.31;66.80;100006.19;20890335;28;20114;-72
2021/05/24 08:04:36;;;;;;;5.40;1.60;;;;;;;13.69;67.25;99999.81;20855741;28;20148;-73
2021/05/24 08:14:38;;;;;;;4.25;1.50;;;;;;;14.18;66.03;99992.69;20823490;28;20548;-73
2021/05/24 08:24:40;;;;;;;4.75;1.40;;;;;;;14.92;60.46;99976.41;20822281;28;20053;-74
2021/05/24 08:34:41;;;;;;;4.72;1.30;;;;;;;15.08;58.46;99962.84;20853187;28;20037;-73
2021/05/24 08:44:44;;;;;;;5.47;1.33;;;;;;;15.94;54.46;99939.91;20886913;28;20090;-73
2021/05/24 08:54:46;;;;;;;3.95;1.08;;;;;;;16.89;52.60;99928.16;20873894;28;20056;-72
2021/05/24 09:04:49;;;;;;;3.97;1.40;;;;;;;16.96;52.82;99912.63;20885514;28;20045;-73
2021/05/24 09:14:56;;;;;;;2.30;0.90;;;;;;;17.56;51.00;99895.69;20900749;28;20041;-72
2021/05/24 09:24:59;;;;;;;3.17;0.80;;;;;;;18.24;48.50;99883.16;20874490;28;20098;-73
2021/05/24 09:35:03;;;;;;;2.28;1.08;;;;;;;18.96;47.15;99879.78;20898400;28;20045;-73
2021/05/24 09:45:16;;;;;;;2.65;1.08;;;;;;;19.06;47.01;99864.66;20869740;28;20393;-72
2021/05/24 09:55:27;;;;;;;3.60;1.17;;;;;;;19.27;45.39;99849.28;20887189;28;20417;-73
2021/05/24 10:05:48;;;;;;;2.83;1.05;;;;;;;19.35;45.05;99841.38;20872837;28;20037;-74
2021/05/24 10:15:54;;;;;;;1.98;0.80;;;;;;;20.02;42.15;99826.63;20888758;28;20468;-74
2021/05/24 10:25:59;;;;;;;4.00;0.90;;;;;;;20.28;40.78;99811.47;20911463;28;20056;-73
2021/05/24 10:36:14;;;;;;;3.40;0.80;;;;;;;20.34;40.44;99792.28;20903483;28;20049;-73
2021/05/24 10:46:35;;;;;;;1.48;0.60;;;;;;;20.07;38.19;99776.50;20901099;28;20789;-73
2021/05/24 10:56:43;;;;;;;3.05;0.50;;;;;;;20.24;37.65;99772.94;20900700;28;20042;-72
2021/05/24 11:07:24;;;;;;;2.38;0.70;;;;;;;20.19;40.41;99747.81;20848734;28;20100;-73
2021/05/24 11:17:26;;;;;;;1.50;0.52;;;;;;;20.23;37.65;99742.03;20837085;28;20041;-72
2021/05/24 11:27:27;;;;;;;3.92;0.98;;;;;;;20.26;39.19;99719.63;20818150;28;20073;-73
2021/05/24 11:37:47;;;;;;;2.15;0.70;;;;;;;20.44;38.50;99701.75;20875470;28;20099;-73
2021/05/24 11:47:59;;;;;;;2.03;0.70;;;;;;;20.57;37.14;99693.31;20889427;28;20044;-73
2021/05/24 11:58:01;;;;;;;4.22;0.65;;;;;;;20.92;35.33;99682.34;20901475;28;20040;-73
2021/05/24 12:08:03;;;;;;;2.65;0.50;;;;;;;21.56;35.60;99677.94;20875135;28;20069;-73
2021/05/24 12:18:06;;;;;;;2.90;0.52;;;;;;;21.50;34.22;99678.63;20878316;28;20106;-73
2021/05/24 12:28:09;;;;;;;2.70;0.70;;;;;;;21.71;33.40;99669.06;20882500;28;20055;-74
2021/05/24 12:48:29;;;;;;;2.58;0.50;;;;;;;21.28;33.04;99659.69;20884125;28;20128;-73
2021/05/24 12:58:35;;;;;;;;;;;;;;;21.46;34.14;99637.38;20885889;28;20512;-73
2021/05/24 13:08:48;;;;;;;2.67;0.57;;;;;;;22.05;32.84;99627.97;20824462;28;19980;-73
2021/05/24 13:19:45;;;;;;;5.82;2.60;;;;;;;22.18;33.20;99618.41;20813376;28;20050;-72
2021/05/24 13:30:03;;;;;;;6.28;2.55;;;;;;;21.64;35.18;99629.97;20801499;28;20460;-72
2021/05/24 13:40:05;;;;;;;2.25;0.70;;;;;;;20.60;35.92;99637.13;20806099;28;20045;-73
2021/05/24 13:50:08;;;;;;;2.70;0.77;;;;;;;19.95;39.16;99651.09;20820948;28;20049;-73
2021/05/24 14:00:12;;;;;;;2.55;0.80;;;;;;;17.70;47.00;99699.41;20826958;28;20139;-73
2021/05/24 14:10:15;;;;;;;4.80;1.00;;;;;;;17.07;49.66;99700.94;20827481;28;20417;-74
2021/05/24 14:20:17;;;;;;;4.32;1.20;;;;;;;16.35;51.62;99717.19;20820188;28;20058;-73
2021/05/24 14:30:24;;;;;;;4.68;1.10;;;;;;;16.23;53.43;99727.03;20822365;28;20033;-74
2021/05/24 14:40:25;;;;;;;3.47;0.90;;;;;;;16.74;50.92;99739.22;20831188;28;20095;-72
2021/05/24 14:50:30;;;;;;;2.83;1.17;;;;;;;17.11;49.97;99752.59;20825144;28;20053;-73
2021/05/24 15:00:33;;;;;;;2.23;0.93;;;;;;;17.17;49.40;99775.78;20783709;28;20175;-74
2021/05/24 15:10:36;;;;;;;5.30;1.00;;;;;;;16.35;52.17;99787.66;20892756;28;20045;-74
2021/05/24 15:20:37;;;;;;;2.92;0.80;;;;;;;15.96;53.86;99784.84;20897880;28;20594;-74
2021/05/24 15:30:50;;;;;;;4.53;0.82;;;;;;;15.97;55.27;99810.28;20891572;28;20048;-74
2021/05/24 15:40:52;;;;;;;3.42;1.05;;;;;;;15.73;55.33;99822.94;20893521;28;20041;-74
2021/05/24 15:50:55;;;;;;;3.45;0.90;;;;;;;14.98;61.58;99813.31;20890077;28;20068;-74
2021/05/24 16:00:57;;;;;;;5.53;1.50;;;;;;;14.64;68.98;99832.84;20888275;28;20569;-73
2021/05/24 16:10:58;;;;;;;3.72;1.13;;;;;;;15.11;74.30;99792.09;20886484;28;20075;-73
2021/05/24 16:21:00;;;;;;;5.85;1.00;;;;;;;15.89;67.05;99812.78;20885657;28;20045;-74
2021/05/24 16:31:02;;;;;;;9.20;1.20;;;;;;;16.08;64.16;99790.91;20870434;28;20064;-73
2021/05/24 16:41:05;;;;;;;3.65;0.85;;;;;;;16.68;60.21;99801.38;20892918;28;20053;-74
2021/05/24 16:51:07;;;;;;;4.00;0.70;;;;;;;16.06;61.66;99798.09;20877056;28;20047;-73
2021/05/24 17:01:08;;;;;;;4.78;1.35;;;;;;;15.82;62.07;99785.22;20880687;28;20400;-73
2021/05/24 17:11:20;;;;;;;2.97;0.82;;;;;;;15.81;62.28;99775.63;20902120;28;20546;-73
2021/05/24 17:21:26;;;;;;;3.20;0.80;;;;;;;15.81;61.17;99780.91;20890793;28;20045;-72
2021/05/24 17:31:27;;;;;;;3.22;0.95;;;;;;;15.31;64.77;99770.16;20879879;28;20033;-73
2021/05/24 17:41:28;;;;;;;3.80;1.27;;;;;;;15.24;64.43;99768.16;20884143;28;20100;-73
2021/05/24 17:51:33;;;;;;;4.32;1.08;;;;;;;15.15;63.54;99775.03;20875966;28;20041;-75
2021/05/24 18:01:35;;;;;;;6.10;2.00;;;;;;;14.91;63.65;99769.16;20884498;28;20051;-74
2021/05/24 18:11:38;;;;;;;6.15;2.58;;;;;;;14.91;65.73;99772.66;20885555;28;20045;-72
2021/05/24 18:21:40;;;;;;;4.47;1.20;;;;;;;14.85;65.69;99759.13;20855871;28;20049;-73
2021/05/24 18:31:44;;;;;;;5.15;1.20;;;;;;;14.45;66.17;99754.47;20875206;28;20067;-72
2021/05/24 18:41:45;;;;;;;2.60;1.00;;;;;;;14.11;66.81;99779.16;20902138;28;20466;-73
2021/05/24 18:51:49;;;;;;;2.90;1.00;;;;;;;13.75;69.49;99767.06;20895823;28;20523;-72
2021/05/24 19:01:53;;;;;;;5.30;1.92;;;;;;;13.58;69.15;99776.25;20886089;28;20080;-73
2021/05/24 19:11:55;;;;;;;5.85;1.40;;;;;;;13.54;69.17;99861.59;20902726;28;20088;-73
2021/05/24 19:21:57;;;;;;;4.68;0.93;;;;;;;11.80;73.99;99963.25;20894545;28;20107;-72
2021/05/24 19:31:59;;;;;;;2.70;0.68;;;;;;;11.28;75.95;99968.38;20898894;28;20489;-73
2021/05/24 19:42:03;;;;;;;2.22;0.80;;;;;;;10.92;79.67;99945.41;20875534;28;20053;-70
2021/05/24 20:33:33;;;;;;;2.67;0.88;;;;;;;10.72;91.54;100030.38;20882580;28;20037;-72
2021/05/24 20:43:36;;;;;;;3.97;1.10;;;;;;;10.66;90.80;100055.16;20876191;28;20048;-70
2021/05/24 20:53:38;;;;;;;3.85;0.98;;;;;;;10.61;92.32;100048.53;20884455;28;20635;-72
2021/05/24 21:03:40;;;;;;;3.78;0.93;;;;;;;10.61;91.47;100046.75;20868139;28;20098;-71
2021/05/24 21:13:42;;;;;;;3.25;0.90;;;;;;;10.54;91.03;100039.34;20901265;28;20095;-71
2021/05/24 21:23:45;;;;;;;4.00;1.20;;;;;;;10.46;92.62;100041.59;20886285;28;20460;-70
2021/05/24 21:44:11;;;;;;;4.25;1.10;;;;;;;10.46;90.75;100052.06;20820031;28;20490;-73
2021/05/24 21:54:13;;;;;;;4.85;1.40;;;;;;;10.47;88.85;100056.34;20836456;28;20096;-71
2021/05/24 22:04:15;;;;;;;2.05;0.95;;;;;;;10.19;90.10;100081.50;20835744;28;20048;-72
2021/05/24 22:14:17;;;;;;;2.75;0.80;;;;;;;9.95;91.05;100077.66;20873587;28;20477;-73
2021/05/24 22:24:20;;;;;;;4.35;1.10;;;;;;;9.81;89.39;100080.19;20858679;28;20045;-71
2021/05/24 22:34:22;;;;;;;5.78;1.77;;;;;;;9.64;88.38;100106.44;20896841;28;20045;-72
2021/05/24 22:44:24;;;;;;;2.88;0.65;;;;;;;9.55;89.50;100096.50;20888612;28;20093;-71
2021/05/24 22:54:25;;;;;;;4.82;1.08;;;;;;;9.47;90.18;100106.50;20830965;28;20103;-71
2021/05/24 23:04:27;;;;;;;5.38;1.20;;;;;;;9.29;90.36;100095.28;20827176;28;20037;-72
2021/05/24 23:14:29;;;;;;;3.33;0.82;;;;;;;9.21;92.68;100127.03;20877389;28;20417;-72
2021/05/24 23:24:31;;;;;;;3.53;1.13;;;;;;;9.27;91.22;100141.53;20910532;28;20049;-72
2021/05/24 23:34:33;;;;;;;2.78;0.90;;;;;;;9.22;90.64;100131.31;20899740;28;20041;-72
2021/05/24 23:44:35;;;;;;;4.07;0.77;;;;;;;9.14;88.38;100125.69;20865290;28;20041;-72
2021/05/24 23:54:37;;;;;;;3.75;0.82;;;;;;;9.06;90.12;100126.97;20827750;28;20049;-72
